Ocoee 1 Observed Data For Previous 48 Hours

Caption
Day and Hour Reservoir Elevation (behind dam)* Tailwater Elevation (below dam)* Average Hourly Discharge*
1/17/2018 2 AM EST 828.22 714.81 633
1/17/2018 3 AM EST 828.24 714.81 633
1/17/2018 4 AM EST 828.26 714.95 637
1/17/2018 5 AM EST 828.25 716.10 1,316
1/17/2018 6 AM EST 828.23 717.00 1,995
1/17/2018 7 AM EST 828.16 718.01 2,705
1/17/2018 8 AM EST 828.08 718.67 3,355
1/17/2018 9 AM EST 828.01 718.67 3,367
1/17/2018 10 AM EST 827.93 718.66 3,362
1/17/2018 11 AM EST 827.90 716.00 2,048
1/17/2018 12 PM EST 827.93 714.81 638
1/17/2018 1 PM EST 827.95 714.81 634
1/17/2018 2 PM EST 827.99 714.81 633
1/17/2018 3 PM EST 828.01 714.81 631
1/17/2018 4 PM EST 828.05 714.81 632
1/17/2018 5 PM EST 828.08 714.81 635
1/17/2018 6 PM EST 828.08 714.95 639
1/17/2018 7 PM EST 828.07 716.13 1,320
1/17/2018 8 PM EST 828.05 716.96 2,004
1/17/2018 9 PM EST 828.04 716.98 2,011
1/17/2018 10 PM EST 828.03 715.94 1,315
1/17/2018 11 PM EST 828.06 714.81 641
1/18/2018 12 AM EST 828.09 714.80 633
1/18/2018 1 AM EST 828.12 714.81 633
1/18/2018 2 AM EST 828.13 714.81 634
1/18/2018 3 AM EST 828.13 714.81 634
1/18/2018 4 AM EST 828.10 714.82 632
1/18/2018 5 AM EST 828.08 714.81 634
1/18/2018 6 AM EST 828.05 714.94 637
1/18/2018 7 AM EST 827.95 718.61 2,786
1/18/2018 8 AM EST 827.83 718.67 3,368
1/18/2018 9 AM EST 827.76 718.68 3,373
1/18/2018 10 AM EST 827.71 716.10 2,412
1/18/2018 11 AM EST 827.73 714.86 1,018
1/18/2018 12 PM EST 827.75 714.81 634
1/18/2018 1 PM EST 827.78 714.81 633
1/18/2018 2 PM EST 827.79 714.81 634
1/18/2018 3 PM EST 827.81 714.81 636
1/18/2018 4 PM EST 827.83 714.81 635
1/18/2018 5 PM EST 827.82 714.82 641
1/18/2018 6 PM EST 827.80 714.82 641
1/18/2018 7 PM EST 827.78 714.82 640
1/18/2018 8 PM EST 827.78 714.89 641
1/18/2018 9 PM EST 827.79 715.95 1,317
1/18/2018 10 PM EST 827.79 715.97 1,325
1/18/2018 11 PM EST 827.78 715.97 1,322
1/19/2018 12 AM EST 827.80 714.83 647

Elevations are in feet above sea level. Discharges are in cubic feet per second and are reported at the end of the hour.